createdAt,value
2018-08-07T00:01:31.944Z,7.20
2018-08-07T00:03:59.053Z,7.63
2018-08-07T00:06:26.184Z,8.87
2018-08-07T00:08:53.272Z,10.20
2018-08-07T00:11:20.370Z,7.63
2018-08-07T00:13:47.501Z,8.00
2018-08-07T00:16:14.601Z,7.70
2018-08-07T00:18:41.688Z,7.20
2018-08-07T00:21:08.758Z,7.57
2018-08-07T00:23:35.857Z,7.23
2018-08-07T00:26:02.959Z,7.80
2018-08-07T00:28:30.093Z,7.93
2018-08-07T00:33:31.101Z,8.10
2018-08-07T00:35:58.191Z,6.90
2018-08-07T00:38:25.299Z,8.20
2018-08-07T00:40:52.374Z,8.40
2018-08-07T00:43:19.525Z,8.33
2018-08-07T00:45:46.618Z,7.60
2018-08-07T00:48:13.727Z,8.27
2018-08-07T00:50:40.781Z,7.67
2018-08-07T00:53:07.838Z,7.57
2018-08-07T00:55:34.922Z,7.90
2018-08-07T00:58:02.037Z,8.40
2018-08-07T01:00:29.140Z,8.90
2018-08-07T01:02:56.236Z,9.00
2018-08-07T01:05:23.384Z,9.03
2018-08-07T01:07:50.488Z,8.03
2018-08-07T01:10:18.155Z,8.10
2018-08-07T01:12:45.236Z,8.57
2018-08-07T01:15:15.432Z,8.00
2018-08-07T01:17:43.096Z,8.37
2018-08-07T01:20:12.317Z,9.57
2018-08-07T01:22:39.805Z,9.17
2018-08-07T01:25:12.670Z,8.80
2018-08-07T01:27:39.828Z,8.50
2018-08-07T01:30:09.836Z,8.20
2018-08-07T01:32:36.936Z,8.87
2018-08-07T01:35:04.089Z,9.00
2018-08-07T01:37:31.324Z,9.30
2018-08-07T01:39:58.398Z,8.63
2018-08-07T01:42:25.536Z,8.37
2018-08-07T01:44:52.758Z,8.40
2018-08-07T01:47:19.862Z,8.73
2018-08-07T01:49:46.924Z,8.97
2018-08-07T01:52:14.076Z,9.23
2018-08-07T01:54:41.198Z,9.27
2018-08-07T01:57:08.394Z,10.37
2018-08-07T01:59:35.501Z,10.90
2018-08-07T02:02:02.584Z,9.40
2018-08-07T02:04:29.675Z,9.40
2018-08-07T02:06:56.805Z,9.23
2018-08-07T02:09:23.848Z,9.50
2018-08-07T02:11:50.924Z,9.60
2018-08-07T02:14:18.043Z,10.23
2018-08-07T02:16:45.160Z,9.87
2018-08-07T02:19:12.251Z,11.40
2018-08-07T02:21:39.332Z,9.27
2018-08-07T02:24:06.439Z,10.33
2018-08-07T02:26:33.531Z,9.80
2018-08-07T02:29:00.751Z,8.77
2018-08-07T02:31:27.825Z,9.67
2018-08-07T02:33:54.917Z,9.57
2018-08-07T02:36:22.004Z,9.10
2018-08-07T02:38:49.129Z,10.40
2018-08-07T02:41:16.233Z,9.43
2018-08-07T02:43:43.352Z,8.93
2018-08-07T02:46:10.457Z,9.37
2018-08-07T02:48:37.538Z,10.87
2018-08-07T02:51:04.653Z,9.33
2018-08-07T02:53:31.724Z,9.20
2018-08-07T02:55:58.774Z,9.37
2018-08-07T02:58:25.856Z,10.00
2018-08-07T03:00:52.944Z,10.97
2018-08-07T03:03:20.021Z,9.87
2018-08-07T03:05:47.147Z,11.03
2018-08-07T03:08:14.288Z,10.33
2018-08-07T03:10:41.438Z,9.93
2018-08-07T03:13:08.589Z,10.90
2018-08-07T03:15:35.705Z,10.10
2018-08-07T03:18:03.380Z,9.93
2018-08-07T03:20:30.494Z,11.70
2018-08-07T03:22:57.592Z,10.30
2018-08-07T03:25:24.724Z,9.80
2018-08-07T03:27:51.864Z,10.77
2018-08-07T03:30:19.936Z,10.63
2018-08-07T03:32:47.536Z,11.17
2018-08-07T03:35:14.710Z,10.80
2018-08-07T03:37:42.102Z,11.17
2018-08-07T03:40:11.614Z,10.63
2018-08-07T03:42:39.184Z,10.90
2018-08-07T03:45:07.626Z,11.47
2018-08-07T03:47:34.755Z,10.70
2018-08-07T03:50:01.876Z,11.00
2018-08-07T03:52:28.973Z,11.67
2018-08-07T03:54:56.173Z,10.67
2018-08-07T03:57:23.272Z,11.10
2018-08-07T03:59:50.398Z,11.47
2018-08-07T04:02:17.551Z,11.93
2018-08-07T04:04:44.686Z,12.13
2018-08-07T04:07:11.770Z,12.63
2018-08-07T04:09:38.936Z,12.10
2018-08-07T04:12:05.989Z,12.23
2018-08-07T04:14:33.156Z,10.97
2018-08-07T04:17:00.212Z,12.07
2018-08-07T04:19:27.670Z,11.93
2018-08-07T04:21:55.623Z,11.50
2018-08-07T04:24:22.835Z,12.00
2018-08-07T04:26:49.938Z,13.90
2018-08-07T04:29:17.452Z,12.67
2018-08-07T04:31:44.548Z,20.10
2018-08-07T04:34:11.624Z,13.83
2018-08-07T04:36:38.750Z,13.33
2018-08-07T04:39:08.017Z,12.20
2018-08-07T04:41:35.192Z,12.87
2018-08-07T04:44:02.417Z,15.30
2018-08-07T04:46:29.520Z,14.07
2018-08-07T04:48:56.741Z,15.33
2018-08-07T04:51:23.842Z,16.30
2018-08-07T04:53:50.940Z,13.70
2018-08-07T04:56:18.108Z,12.27
2018-08-07T04:58:45.245Z,16.50
2018-08-07T05:01:12.364Z,18.57
2018-08-07T05:03:39.456Z,17.07
2018-08-07T05:06:06.561Z,14.97
2018-08-07T05:08:33.695Z,14.50
2018-08-07T05:11:00.814Z,14.43
2018-08-07T05:13:27.904Z,19.10
2018-08-07T05:15:54.996Z,14.60
2018-08-07T05:18:22.096Z,17.67
2018-08-07T05:20:49.212Z,14.30
2018-08-07T05:23:16.324Z,17.50
2018-08-07T05:25:43.395Z,15.43
2018-08-07T05:28:10.576Z,13.77
2018-08-07T05:30:37.714Z,13.40
2018-08-07T05:33:04.875Z,14.63
2018-08-07T05:35:31.986Z,16.57
2018-08-07T05:37:59.092Z,13.57
2018-08-07T05:40:26.224Z,12.60
2018-08-07T05:42:53.425Z,15.33
2018-08-07T05:45:20.500Z,13.47
2018-08-07T05:47:47.652Z,14.10
2018-08-07T05:50:15.929Z,13.30
2018-08-07T05:52:42.869Z,17.30
2018-08-07T05:55:10.514Z,17.00
2018-08-07T05:57:37.714Z,20.53
2018-08-07T06:00:12.452Z,21.43
2018-08-07T06:02:39.564Z,18.93
2018-08-07T06:05:06.828Z,16.00
2018-08-07T06:07:33.918Z,15.03
2018-08-07T06:10:00.984Z,15.27
2018-08-07T06:12:28.068Z,20.73
2018-08-07T06:14:55.135Z,15.93
2018-08-07T06:17:22.236Z,20.30
2018-08-07T06:19:49.388Z,22.80
2018-08-07T06:22:16.464Z,21.97
2018-08-07T06:24:43.560Z,23.27
2018-08-07T06:27:10.719Z,22.30
2018-08-07T06:29:37.924Z,27.60
2018-08-07T06:32:05.289Z,20.30
2018-08-07T06:34:32.404Z,18.93
2018-08-07T06:36:59.489Z,17.70
2018-08-07T06:39:26.621Z,22.50
2018-08-07T06:41:53.774Z,12.93
2018-08-07T06:44:20.901Z,16.77
2018-08-07T06:46:48.001Z,15.17
2018-08-07T06:49:15.137Z,13.27
2018-08-07T06:51:42.268Z,14.30
2018-08-07T06:54:09.451Z,17.57
2018-08-07T06:56:36.587Z,13.80
2018-08-07T06:59:03.744Z,14.90
2018-08-07T07:01:30.902Z,14.30
2018-08-07T07:03:58.045Z,17.47
2018-08-07T07:06:25.202Z,14.47
2018-08-07T07:08:52.268Z,14.03
2018-08-07T07:11:20.162Z,14.20
2018-08-07T07:13:47.231Z,15.70
2018-08-07T07:16:14.304Z,14.70
2018-08-07T07:18:41.388Z,16.73
2018-08-07T07:21:08.446Z,19.70
2018-08-07T07:23:35.544Z,15.73
2018-08-07T07:26:02.643Z,15.17
2018-08-07T07:28:29.766Z,16.30
2018-08-07T07:30:56.836Z,17.30
2018-08-07T07:33:23.919Z,16.30
2018-08-07T07:35:51.048Z,16.70
2018-08-07T07:38:18.153Z,18.53
2018-08-07T07:40:45.402Z,18.87
2018-08-07T07:43:12.505Z,18.80
2018-08-07T07:45:39.609Z,20.23
2018-08-07T07:48:06.688Z,18.97
2018-08-07T07:50:33.789Z,21.27
2018-08-07T07:53:00.890Z,16.67
2018-08-07T07:55:28.054Z,15.30
2018-08-07T07:57:55.176Z,15.20
2018-08-07T08:00:24.409Z,19.50
2018-08-07T08:02:51.904Z,14.47
2018-08-07T08:05:19.682Z,15.20
2018-08-07T08:07:46.812Z,15.43
2018-08-07T08:10:13.952Z,12.97
2018-08-07T08:12:41.077Z,14.30
2018-08-07T08:15:10.597Z,17.20
2018-08-07T08:17:37.823Z,30.13
2018-08-07T08:20:06.703Z,15.23
2018-08-07T08:22:34.011Z,13.67
2018-08-07T08:25:01.288Z,14.90
2018-08-07T08:27:28.457Z,14.03
2018-08-07T08:29:56.048Z,12.60
2018-08-07T08:32:23.219Z,14.93
2018-08-07T08:34:50.458Z,17.17
2018-08-07T08:37:17.633Z,20.90
2018-08-07T08:39:44.831Z,15.13
2018-08-07T08:42:12.015Z,13.67
2018-08-07T08:44:39.228Z,13.47
2018-08-07T08:47:06.444Z,14.00
2018-08-07T08:49:33.647Z,15.23
2018-08-07T08:52:00.855Z,15.67
2018-08-07T08:54:27.977Z,16.20
2018-08-07T08:56:55.416Z,14.27
2018-08-07T08:59:22.504Z,14.13
2018-08-07T09:01:49.680Z,14.83
2018-08-07T09:04:16.816Z,17.00
2018-08-07T09:06:44.899Z,14.10
2018-08-07T09:09:13.311Z,14.00
2018-08-07T09:11:40.483Z,19.07
2018-08-07T09:14:08.989Z,14.90
2018-08-07T09:16:36.722Z,14.60
2018-08-07T09:19:04.106Z,13.07
2018-08-07T09:21:31.398Z,13.63
2018-08-07T09:23:58.534Z,13.93
2018-08-07T09:26:32.612Z,13.93
2018-08-07T09:28:59.887Z,14.13
2018-08-07T09:31:27.072Z,16.17
2018-08-07T09:33:54.402Z,20.87
2018-08-07T09:36:21.611Z,13.90
2018-08-07T09:38:48.742Z,13.97
2018-08-07T09:41:15.859Z,14.03
2018-08-07T09:43:43.219Z,14.03
2018-08-07T09:46:10.417Z,12.53
2018-08-07T09:48:37.564Z,12.40
2018-08-07T09:51:04.779Z,14.67
2018-08-07T09:53:31.989Z,39.37
2018-08-07T09:55:59.200Z,16.53
2018-08-07T09:58:26.418Z,13.60
2018-08-07T10:00:59.213Z,14.00
2018-08-07T10:03:26.413Z,13.40
2018-08-07T10:05:53.681Z,15.33
2018-08-07T10:08:20.858Z,13.23
2018-08-07T10:10:47.981Z,14.13
2018-08-07T10:13:15.149Z,13.43
2018-08-07T10:15:42.332Z,17.20
2018-08-07T10:18:09.780Z,15.40
2018-08-07T10:20:36.944Z,14.03
2018-08-07T10:23:04.121Z,13.97
2018-08-07T10:25:31.355Z,14.90
2018-08-07T10:27:58.572Z,13.73
2018-08-07T10:30:25.955Z,14.60
2018-08-07T10:32:53.691Z,13.47
2018-08-07T10:35:20.939Z,15.97
2018-08-07T10:37:48.315Z,13.57
2018-08-07T10:40:17.803Z,13.40
2018-08-07T10:42:45.120Z,12.40
2018-08-07T10:45:13.909Z,13.57
2018-08-07T10:47:41.217Z,13.47
2018-08-07T10:50:20.938Z,13.20
2018-08-07T10:52:48.521Z,15.87
2018-08-07T10:55:15.805Z,14.63
2018-08-07T10:57:45.129Z,13.87
2018-08-07T11:00:15.806Z,14.13
2018-08-07T11:02:43.761Z,13.60
2018-08-07T11:05:11.693Z,14.00
2018-08-07T11:07:39.092Z,12.50
2018-08-07T11:10:07.937Z,12.67
2018-08-07T11:12:35.138Z,13.07
2018-08-07T11:15:02.338Z,12.20
2018-08-07T11:17:30.289Z,13.70
2018-08-07T11:19:57.529Z,12.87
2018-08-07T11:22:24.671Z,14.30
2018-08-07T11:24:52.196Z,12.77
2018-08-07T11:27:19.384Z,12.43
2018-08-07T11:29:46.618Z,14.33
2018-08-07T11:32:13.816Z,13.07
2018-08-07T11:34:41.017Z,14.47
2018-08-07T11:37:08.187Z,12.80
2018-08-07T11:39:35.449Z,12.00
2018-08-07T11:42:02.657Z,14.00
2018-08-07T11:44:29.932Z,13.20
2018-08-07T11:46:57.011Z,12.50
2018-08-07T11:49:24.138Z,11.97
2018-08-07T11:51:51.290Z,11.53
2018-08-07T11:54:18.405Z,10.90
2018-08-07T11:56:45.566Z,12.30
2018-08-07T11:59:15.681Z,12.00
2018-08-07T12:01:42.823Z,12.20
2018-08-07T12:04:09.958Z,12.73
2018-08-07T12:06:37.152Z,11.70
2018-08-07T12:09:06.843Z,11.20
2018-08-07T12:11:33.998Z,11.70
2018-08-07T12:14:01.213Z,11.27
2018-08-07T12:16:28.384Z,11.33
2018-08-07T12:18:55.517Z,12.67
2018-08-07T12:21:22.638Z,11.90
2018-08-07T12:23:49.716Z,12.47
2018-08-07T12:28:51.000Z,11.53
2018-08-07T12:31:18.135Z,10.87
2018-08-07T12:33:45.272Z,11.40
2018-08-07T12:36:12.400Z,11.37
2018-08-07T12:38:39.504Z,11.87
2018-08-07T12:41:06.676Z,12.40
2018-08-07T12:43:33.785Z,12.23
2018-08-07T12:46:00.955Z,11.83
2018-08-07T12:48:28.093Z,13.13
2018-08-07T12:50:55.305Z,13.10
2018-08-07T12:53:22.502Z,12.77
2018-08-07T12:55:49.649Z,12.43
2018-08-07T12:58:16.796Z,15.67
2018-08-07T13:00:44.050Z,22.10
2018-08-07T13:03:12.513Z,13.23
2018-08-07T13:05:39.681Z,14.07
2018-08-07T13:08:06.841Z,13.43
2018-08-07T13:10:33.987Z,14.60
2018-08-07T13:13:01.140Z,14.57
2018-08-07T13:15:28.460Z,13.20
2018-08-07T13:17:55.613Z,12.43
2018-08-07T13:20:22.758Z,14.23
2018-08-07T13:22:49.949Z,12.17
2018-08-07T13:25:19.202Z,16.17
2018-08-07T13:27:46.378Z,15.90
2018-08-07T13:30:16.677Z,12.63
2018-08-07T13:32:50.752Z,13.27
2018-08-07T13:35:17.956Z,13.43
2018-08-07T13:37:46.624Z,13.90
2018-08-07T13:40:15.716Z,14.80
2018-08-07T13:42:42.941Z,13.83
2018-08-07T13:45:14.480Z,14.33
2018-08-07T13:47:41.652Z,14.60
2018-08-07T13:50:11.909Z,13.93
2018-08-07T13:52:39.015Z,13.77
2018-08-07T13:55:06.209Z,14.50
2018-08-07T13:57:33.339Z,13.60
2018-08-07T14:00:00.749Z,14.10
2018-08-07T14:02:27.856Z,14.87
2018-08-07T14:04:55.011Z,13.90
2018-08-07T14:07:22.324Z,13.60
2018-08-07T14:09:49.608Z,13.73
2018-08-07T14:12:17.352Z,13.80
2018-08-07T14:14:44.521Z,14.50
2018-08-07T14:17:11.703Z,13.57
2018-08-07T14:19:38.833Z,13.17
2018-08-07T14:22:06.363Z,13.50
2018-08-07T14:24:33.537Z,14.30
2018-08-07T14:27:00.669Z,13.40
2018-08-07T14:29:27.827Z,14.37
2018-08-07T14:31:54.971Z,13.43
2018-08-07T14:34:22.111Z,12.70
2018-08-07T14:36:49.403Z,13.30
2018-08-07T14:39:16.932Z,14.00
2018-08-07T14:41:45.697Z,12.97
2018-08-07T14:44:12.871Z,14.10
2018-08-07T14:46:40.121Z,13.10
2018-08-07T14:49:07.317Z,13.17
2018-08-07T14:51:34.453Z,13.43
2018-08-07T14:54:01.621Z,13.70
2018-08-07T14:56:28.732Z,13.00
2018-08-07T14:58:55.906Z,13.03
2018-08-07T15:02:18.909Z,13.03
2018-08-07T15:04:46.368Z,13.60
2018-08-07T15:07:13.894Z,13.90
2018-08-07T15:09:41.017Z,13.23
2018-08-07T15:12:08.137Z,13.07
2018-08-07T15:14:35.336Z,12.07
2018-08-07T15:17:02.436Z,14.37
2018-08-07T15:19:29.610Z,13.07
2018-08-07T15:21:56.759Z,13.30
2018-08-07T15:24:23.819Z,14.77
2018-08-07T15:26:51.041Z,13.87
2018-08-07T15:29:18.497Z,15.10
2018-08-07T15:31:45.733Z,13.10
2018-08-07T15:34:12.844Z,13.80
2018-08-07T15:36:40.002Z,14.23
2018-08-07T15:39:09.281Z,13.67
2018-08-07T15:41:36.515Z,14.20
2018-08-07T15:44:03.761Z,12.90
2018-08-07T15:46:30.876Z,13.53
2018-08-07T15:48:57.978Z,15.00
2018-08-07T15:51:25.111Z,13.33
2018-08-07T15:53:52.617Z,12.80
2018-08-07T15:56:20.913Z,13.13
2018-08-07T15:58:48.024Z,13.03
2018-08-07T16:01:15.121Z,12.47
2018-08-07T16:03:42.210Z,14.50
2018-08-07T16:06:09.306Z,12.73
2018-08-07T16:08:36.426Z,15.67
2018-08-07T16:11:03.897Z,12.13
2018-08-07T16:13:31.028Z,15.83
2018-08-07T16:15:58.175Z,13.60
2018-08-07T16:18:25.264Z,14.30
2018-08-07T16:20:52.337Z,12.40
2018-08-07T16:23:19.507Z,11.63
2018-08-07T16:25:46.636Z,10.33
2018-08-07T16:28:13.756Z,11.07
2018-08-07T16:30:47.702Z,9.90
2018-08-07T16:33:14.868Z,10.37
2018-08-07T16:35:41.977Z,11.10
2018-08-07T16:38:09.105Z,10.63
2018-08-07T16:40:36.246Z,10.87
2018-08-07T16:43:03.355Z,11.00
2018-08-07T16:45:30.504Z,11.60
2018-08-07T16:47:57.683Z,10.27
2018-08-07T16:50:25.998Z,10.23
2018-08-07T16:52:53.980Z,10.67
2018-08-07T16:55:22.427Z,11.50
2018-08-07T16:57:49.516Z,10.20
2018-08-07T17:00:16.640Z,11.03
2018-08-07T17:02:43.762Z,10.70
2018-08-07T17:05:13.337Z,10.60
2018-08-07T17:07:40.843Z,10.43
2018-08-07T17:10:12.315Z,10.00
2018-08-07T17:12:39.697Z,13.00
2018-08-07T17:15:08.480Z,10.87
2018-08-07T17:17:35.580Z,8.93
2018-08-07T17:20:03.673Z,9.47
2018-08-07T17:22:30.768Z,8.30
2018-08-07T17:24:57.861Z,10.67
2018-08-07T17:27:24.997Z,12.00
2018-08-07T17:29:52.178Z,11.13
2018-08-07T17:32:19.316Z,15.03
2018-08-07T17:34:46.499Z,17.00
2018-08-07T17:37:13.581Z,21.10
2018-08-07T17:39:40.807Z,8.80
2018-08-07T17:42:07.912Z,8.10
2018-08-07T17:44:35.122Z,18.33
2018-08-07T17:47:02.230Z,9.87
2018-08-07T17:49:29.410Z,9.60
2018-08-07T17:51:56.504Z,9.50
2018-08-07T17:54:23.720Z,10.60
2018-08-07T17:56:50.831Z,7.33
2018-08-07T17:59:17.988Z,7.80
2018-08-07T18:01:45.080Z,7.70
2018-08-07T18:04:12.188Z,12.20
2018-08-07T18:06:39.289Z,8.23
2018-08-07T18:09:07.666Z,9.30
2018-08-07T18:11:35.010Z,8.57
2018-08-07T18:14:02.200Z,8.00
2018-08-07T18:16:29.564Z,9.20
2018-08-07T18:18:56.780Z,8.73
2018-08-07T18:21:25.210Z,8.27
2018-08-07T18:23:52.367Z,8.37
2018-08-07T18:26:19.540Z,8.37
2018-08-07T18:28:46.669Z,16.50
2018-08-07T18:31:13.868Z,8.73
2018-08-07T18:33:41.074Z,8.30
2018-08-07T18:36:08.261Z,8.57
2018-08-07T18:38:35.646Z,8.10
2018-08-07T18:41:02.810Z,11.00
2018-08-07T18:43:30.043Z,8.00
2018-08-07T18:45:57.265Z,8.63
2018-08-07T18:48:25.497Z,12.23
2018-08-07T18:50:52.634Z,10.40
2018-08-07T18:53:19.747Z,9.47
2018-08-07T18:55:46.955Z,26.47
2018-08-07T18:58:14.184Z,17.63
2018-08-07T19:00:41.342Z,12.00
2018-08-07T19:03:08.480Z,12.27
2018-08-07T19:05:35.643Z,21.57
2018-08-07T19:08:02.776Z,16.33
2018-08-07T19:10:29.922Z,25.23
2018-08-07T19:12:57.108Z,16.60
2018-08-07T19:15:24.278Z,9.97
2018-08-07T19:17:51.484Z,10.40
2018-08-07T19:20:19.986Z,10.90
2018-08-07T19:22:47.440Z,12.43
2018-08-07T19:25:14.649Z,11.53
2018-08-07T19:27:41.985Z,11.67
2018-08-07T19:30:10.803Z,11.87
2018-08-07T19:32:38.497Z,10.13
2018-08-07T19:35:06.380Z,9.90
2018-08-07T19:37:33.599Z,10.47
2018-08-07T19:40:01.012Z,10.90
2018-08-07T19:42:28.207Z,12.47
2018-08-07T19:44:55.397Z,19.13
2018-08-07T19:47:22.547Z,17.20
2018-08-07T19:49:49.661Z,10.63
2018-08-07T19:52:16.845Z,11.33
2018-08-07T19:54:44.006Z,13.00
2018-08-07T19:57:11.212Z,12.20
2018-08-07T19:59:38.415Z,11.73
2018-08-07T20:02:05.569Z,17.83
2018-08-07T20:04:32.698Z,15.40
2018-08-07T20:06:59.846Z,12.77
2018-08-07T20:09:27.286Z,14.23
2018-08-07T20:11:54.565Z,11.90
2018-08-07T20:14:21.737Z,12.40
2018-08-07T20:16:48.883Z,11.50
2018-08-07T20:19:16.080Z,11.47
2018-08-07T20:21:43.307Z,13.50
2018-08-07T20:24:10.846Z,10.47
2018-08-07T20:26:38.022Z,10.33
2018-08-07T20:29:05.188Z,11.33
2018-08-07T20:31:32.368Z,25.27
2018-08-07T20:33:59.515Z,16.00
2018-08-07T20:36:26.674Z,16.00
2018-08-07T20:38:53.835Z,12.03
2018-08-07T20:41:20.952Z,11.30
2018-08-07T20:43:48.132Z,12.30
2018-08-07T20:46:15.343Z,10.17
2018-08-07T20:48:42.478Z,12.80
2018-08-07T20:51:09.692Z,15.53
2018-08-07T20:53:36.865Z,15.40
2018-08-07T20:56:03.955Z,10.90
2018-08-07T20:58:31.192Z,11.83
2018-08-07T21:00:58.315Z,11.13
2018-08-07T21:03:25.428Z,11.27
2018-08-07T21:05:52.578Z,12.43
2018-08-07T21:08:19.765Z,12.13
2018-08-07T21:10:47.042Z,14.07
2018-08-07T21:13:14.182Z,11.93
2018-08-07T21:15:41.293Z,11.50
2018-08-07T21:18:08.425Z,12.07
2018-08-07T21:20:35.600Z,12.70
2018-08-07T21:23:02.783Z,12.10
2018-08-07T21:25:30.040Z,12.77
2018-08-07T21:27:58.610Z,12.43
2018-08-07T21:30:28.306Z,14.63
2018-08-07T21:32:55.384Z,18.70
2018-08-07T21:35:22.545Z,28.03
2018-08-07T21:37:49.663Z,12.20
2018-08-07T21:40:18.960Z,12.40
2018-08-07T21:42:46.592Z,14.47
2018-08-07T21:45:13.972Z,13.37
2018-08-07T21:47:41.108Z,11.40
2018-08-07T21:50:10.173Z,12.23
2018-08-07T21:52:37.369Z,12.80
2018-08-07T21:55:05.105Z,12.50
2018-08-07T21:57:32.362Z,13.40
2018-08-07T21:59:59.521Z,11.97
2018-08-07T22:02:26.657Z,13.63
2018-08-07T22:04:53.795Z,12.40
2018-08-07T22:07:20.914Z,12.87
2018-08-07T22:09:48.036Z,13.20
2018-08-07T22:12:15.231Z,13.20
2018-08-07T22:14:42.414Z,12.40
2018-08-07T22:17:09.589Z,12.10
2018-08-07T22:19:36.710Z,12.00
2018-08-07T22:22:03.872Z,12.07
2018-08-07T22:24:31.070Z,12.50
2018-08-07T22:26:58.177Z,11.30
2018-08-07T22:29:25.289Z,13.00
2018-08-07T22:31:52.407Z,13.10
2018-08-07T22:34:19.492Z,11.93
2018-08-07T22:36:46.644Z,12.37
2018-08-07T22:39:13.785Z,13.17
2018-08-07T22:41:40.932Z,12.07
2018-08-07T22:44:08.096Z,12.33
2018-08-07T22:46:35.247Z,12.13
2018-08-07T22:49:02.582Z,11.07
2018-08-07T22:51:29.953Z,10.63
2018-08-07T22:53:57.117Z,10.90
2018-08-07T22:56:24.207Z,11.27
2018-08-07T22:58:51.343Z,11.60
2018-08-07T23:01:18.488Z,10.70
2018-08-07T23:03:45.590Z,10.83
2018-08-07T23:06:12.711Z,11.50
2018-08-07T23:08:39.822Z,11.00
2018-08-07T23:11:06.959Z,11.03
2018-08-07T23:13:34.144Z,11.20
2018-08-07T23:16:01.245Z,12.17
2018-08-07T23:18:28.419Z,11.47
2018-08-07T23:20:55.514Z,11.13
2018-08-07T23:23:22.633Z,11.30
2018-08-07T23:25:49.723Z,11.40
2018-08-07T23:28:16.942Z,11.97
2018-08-07T23:30:44.064Z,12.07
2018-08-07T23:33:11.212Z,11.77
2018-08-07T23:35:38.347Z,10.33
2018-08-07T23:38:05.538Z,12.37
2018-08-07T23:40:32.698Z,12.37
2018-08-07T23:42:59.822Z,11.20
2018-08-07T23:45:26.956Z,10.27
2018-08-07T23:47:54.153Z,10.17
2018-08-07T23:50:21.289Z,10.70
2018-08-07T23:52:48.464Z,10.73
2018-08-07T23:55:15.640Z,10.87
2018-08-07T23:57:42.834Z,9.00
